sensor_id;sensor_type;location;lat;lon;timestamp;P1;durP1;ratioP1;P2;durP2;ratioP2
13012;SDS011;22580;57.670;12.006;2023-02-01T00:02:02;3.03;;;1.10;;
13012;SDS011;22580;57.670;12.006;2023-02-01T00:04:29;4.50;;;1.27;;
13012;SDS011;22580;57.670;12.006;2023-02-01T00:06:57;3.70;;;0.93;;
13012;SDS011;22580;57.670;12.006;2023-02-01T00:09:24;4.50;;;1.60;;
13012;SDS011;22580;57.670;12.006;2023-02-01T00:11:50;2.67;;;1.07;;
13012;SDS011;22580;57.670;12.006;2023-02-01T00:14:17;4.63;;;1.70;;
13012;SDS011;22580;57.670;12.006;2023-02-01T00:16:44;5.77;;;1.60;;
13012;SDS011;22580;57.670;12.006;2023-02-01T00:19:14;3.10;;;1.20;;
13012;SDS011;22580;57.670;12.006;2023-02-01T00:21:41;5.03;;;1.50;;
13012;SDS011;22580;57.670;12.006;2023-02-01T00:24:09;3.03;;;1.50;;
13012;SDS011;22580;57.670;12.006;2023-02-01T00:26:37;4.47;;;1.43;;
13012;SDS011;22580;57.670;12.006;2023-02-01T00:29:06;6.73;;;1.40;;
13012;SDS011;22580;57.670;12.006;2023-02-01T00:31:37;4.83;;;1.40;;
13012;SDS011;22580;57.670;12.006;2023-02-01T00:34:04;4.50;;;1.77;;
13012;SDS011;22580;57.670;12.006;2023-02-01T00:36:32;6.20;;;1.43;;
13012;SDS011;22580;57.670;12.006;2023-02-01T00:39:00;5.23;;;1.37;;
13012;SDS011;22580;57.670;12.006;2023-02-01T00:41:27;1.63;;;1.00;;
13012;SDS011;22580;57.670;12.006;2023-02-01T00:43:54;4.70;;;1.63;;
13012;SDS011;22580;57.670;12.006;2023-02-01T00:46:21;5.00;;;1.70;;
13012;SDS011;22580;57.670;12.006;2023-02-01T00:48:48;3.87;;;1.27;;
13012;SDS011;22580;57.670;12.006;2023-02-01T00:51:17;4.00;;;1.40;;
13012;SDS011;22580;57.670;12.006;2023-02-01T00:53:48;5.33;;;1.80;;
13012;SDS011;22580;57.670;12.006;2023-02-01T00:56:15;3.00;;;1.60;;
13012;SDS011;22580;57.670;12.006;2023-02-01T00:58:42;3.90;;;1.50;;
13012;SDS011;22580;57.670;12.006;2023-02-01T01:01:10;5.37;;;1.60;;
13012;SDS011;22580;57.670;12.006;2023-02-01T01:03:38;2.67;;;1.50;;
13012;SDS011;22580;57.670;12.006;2023-02-01T01:06:08;4.70;;;1.63;;
13012;SDS011;22580;57.670;12.006;2023-02-01T01:08:37;5.50;;;1.20;;
13012;SDS011;22580;57.670;12.006;2023-02-01T01:11:06;4.77;;;1.30;;
13012;SDS011;22580;57.670;12.006;2023-02-01T01:13:34;6.93;;;2.20;;
13012;SDS011;22580;57.670;12.006;2023-02-01T01:16:02;6.50;;;1.37;;
13012;SDS011;22580;57.670;12.006;2023-02-01T01:18:31;7.10;;;1.53;;
13012;SDS011;22580;57.670;12.006;2023-02-01T01:20:58;5.77;;;2.10;;
13012;SDS011;22580;57.670;12.006;2023-02-01T01:23:26;7.77;;;1.90;;
13012;SDS011;22580;57.670;12.006;2023-02-01T01:25:54;6.73;;;1.90;;
13012;SDS011;22580;57.670;12.006;2023-02-01T01:28:23;5.33;;;1.77;;
13012;SDS011;22580;57.670;12.006;2023-02-01T01:30:50;4.37;;;1.70;;
13012;SDS011;22580;57.670;12.006;2023-02-01T01:33:17;6.10;;;1.60;;
13012;SDS011;22580;57.670;12.006;2023-02-01T01:35:44;7.53;;;2.20;;
13012;SDS011;22580;57.670;12.006;2023-02-01T01:38:11;6.77;;;1.93;;
13012;SDS011;22580;57.670;12.006;2023-02-01T01:40:40;6.83;;;1.83;;
13012;SDS011;22580;57.670;12.006;2023-02-01T01:43:12;6.77;;;1.77;;
13012;SDS011;22580;57.670;12.006;2023-02-01T01:45:42;2.87;;;1.37;;
13012;SDS011;22580;57.670;12.006;2023-02-01T01:48:10;4.83;;;1.53;;
13012;SDS011;22580;57.670;12.006;2023-02-01T01:50:42;10.10;;;1.97;;
13012;SDS011;22580;57.670;12.006;2023-02-01T01:53:15;6.23;;;1.60;;
13012;SDS011;22580;57.670;12.006;2023-02-01T01:55:47;6.27;;;1.97;;
13012;SDS011;22580;57.670;12.006;2023-02-01T01:58:17;3.30;;;1.50;;
13012;SDS011;22580;57.670;12.006;2023-02-01T02:00:48;4.40;;;1.90;;
13012;SDS011;22580;57.670;12.006;2023-02-01T02:03:17;6.80;;;2.00;;
13012;SDS011;22580;57.670;12.006;2023-02-01T02:05:46;11.97;;;2.30;;
13012;SDS011;22580;57.670;12.006;2023-02-01T02:08:15;4.77;;;1.80;;
13012;SDS011;22580;57.670;12.006;2023-02-01T02:10:45;6.43;;;1.53;;
13012;SDS011;22580;57.670;12.006;2023-02-01T02:13:27;5.37;;;1.83;;
13012;SDS011;22580;57.670;12.006;2023-02-01T02:16:14;4.97;;;1.73;;
13012;SDS011;22580;57.670;12.006;2023-02-01T02:18:53;6.97;;;1.87;;
13012;SDS011;22580;57.670;12.006;2023-02-01T02:21:40;6.70;;;2.00;;
13012;SDS011;22580;57.670;12.006;2023-02-01T02:24:30;8.00;;;2.20;;
13012;SDS011;22580;57.670;12.006;2023-02-01T02:27:11;6.17;;;1.83;;
13012;SDS011;22580;57.670;12.006;2023-02-01T02:29:55;4.93;;;2.13;;
13012;SDS011;22580;57.670;12.006;2023-02-01T02:33:01;10.03;;;2.13;;
13012;SDS011;22580;57.670;12.006;2023-02-01T02:35:58;3.20;;;1.50;;
13012;SDS011;22580;57.670;12.006;2023-02-01T02:38:29;8.53;;;2.20;;
13012;SDS011;22580;57.670;12.006;2023-02-01T02:41:05;5.97;;;2.13;;
13012;SDS011;22580;57.670;12.006;2023-02-01T02:44:01;7.20;;;2.60;;
13012;SDS011;22580;57.670;12.006;2023-02-01T02:46:52;8.47;;;2.40;;
13012;SDS011;22580;57.670;12.006;2023-02-01T02:49:43;7.70;;;2.67;;
13012;SDS011;22580;57.670;12.006;2023-02-01T02:52:42;6.80;;;2.40;;
13012;SDS011;22580;57.670;12.006;2023-02-01T02:55:27;9.30;;;2.53;;
13012;SDS011;22580;57.670;12.006;2023-02-01T02:57:56;8.60;;;2.57;;
13012;SDS011;22580;57.670;12.006;2023-02-01T03:00:42;4.37;;;1.93;;
13012;SDS011;22580;57.670;12.006;2023-02-01T03:03:28;9.50;;;2.57;;
13012;SDS011;22580;57.670;12.006;2023-02-01T03:06:13;5.93;;;2.20;;
13012;SDS011;22580;57.670;12.006;2023-02-01T03:08:45;9.23;;;2.73;;
13012;SDS011;22580;57.670;12.006;2023-02-01T03:11:13;7.00;;;2.23;;
13012;SDS011;22580;57.670;12.006;2023-02-01T03:13:42;8.70;;;2.30;;
13012;SDS011;22580;57.670;12.006;2023-02-01T03:16:11;5.40;;;1.97;;
13012;SDS011;22580;57.670;12.006;2023-02-01T03:18:45;8.03;;;2.50;;
13012;SDS011;22580;57.670;12.006;2023-02-01T03:21:20;7.90;;;2.27;;
13012;SDS011;22580;57.670;12.006;2023-02-01T03:23:52;6.60;;;2.57;;
13012;SDS011;22580;57.670;12.006;2023-02-01T03:26:24;7.97;;;2.60;;
13012;SDS011;22580;57.670;12.006;2023-02-01T03:28:54;8.37;;;2.80;;
13012;SDS011;22580;57.670;12.006;2023-02-01T03:31:25;14.50;;;3.23;;
13012;SDS011;22580;57.670;12.006;2023-02-01T03:33:54;8.10;;;2.80;;
13012;SDS011;22580;57.670;12.006;2023-02-01T03:36:24;5.70;;;2.23;;
13012;SDS011;22580;57.670;12.006;2023-02-01T03:38:58;7.47;;;2.80;;
13012;SDS011;22580;57.670;12.006;2023-02-01T03:41:34;11.77;;;3.30;;
13012;SDS011;22580;57.670;12.006;2023-02-01T03:44:07;10.10;;;2.90;;
13012;SDS011;22580;57.670;12.006;2023-02-01T03:46:38;7.80;;;2.97;;
13012;SDS011;22580;57.670;12.006;2023-02-01T03:49:10;11.93;;;3.00;;
13012;SDS011;22580;57.670;12.006;2023-02-01T03:51:43;9.20;;;2.53;;
13012;SDS011;22580;57.670;12.006;2023-02-01T03:54:12;9.43;;;3.10;;
13012;SDS011;22580;57.670;12.006;2023-02-01T03:56:42;8.63;;;2.30;;
13012;SDS011;22580;57.670;12.006;2023-02-01T03:59:11;12.53;;;3.17;;
13012;SDS011;22580;57.670;12.006;2023-02-01T04:01:39;11.30;;;3.23;;
13012;SDS011;22580;57.670;12.006;2023-02-01T04:04:07;10.87;;;2.97;;
13012;SDS011;22580;57.670;12.006;2023-02-01T04:06:34;8.50;;;2.70;;
13012;SDS011;22580;57.670;12.006;2023-02-01T04:09:01;5.10;;;2.07;;
13012;SDS011;22580;57.670;12.006;2023-02-01T04:11:30;6.47;;;2.40;;
13012;SDS011;22580;57.670;12.006;2023-02-01T04:13:57;4.63;;;1.87;;
13012;SDS011;22580;57.670;12.006;2023-02-01T04:16:29;7.17;;;2.50;;
13012;SDS011;22580;57.670;12.006;2023-02-01T04:18:56;10.03;;;3.13;;
13012;SDS011;22580;57.670;12.006;2023-02-01T04:21:23;12.67;;;3.20;;
13012;SDS011;22580;57.670;12.006;2023-02-01T04:23:50;9.07;;;2.73;;
13012;SDS011;22580;57.670;12.006;2023-02-01T04:26:17;7.90;;;2.50;;
13012;SDS011;22580;57.670;12.006;2023-02-01T04:28:46;7.90;;;2.80;;
13012;SDS011;22580;57.670;12.006;2023-02-01T04:31:13;3.90;;;1.97;;
13012;SDS011;22580;57.670;12.006;2023-02-01T04:33:40;11.27;;;3.03;;
13012;SDS011;22580;57.670;12.006;2023-02-01T04:36:07;9.93;;;3.47;;
13012;SDS011;22580;57.670;12.006;2023-02-01T04:38:35;6.93;;;2.43;;
13012;SDS011;22580;57.670;12.006;2023-02-01T04:41:02;11.47;;;3.33;;
13012;SDS011;22580;57.670;12.006;2023-02-01T04:43:28;9.83;;;3.33;;
13012;SDS011;22580;57.670;12.006;2023-02-01T04:45:57;10.53;;;3.50;;
13012;SDS011;22580;57.670;12.006;2023-02-01T04:48:24;7.80;;;2.20;;
13012;SDS011;22580;57.670;12.006;2023-02-01T04:50:50;7.57;;;2.73;;
13012;SDS011;22580;57.670;12.006;2023-02-01T04:53:17;11.03;;;3.20;;
13012;SDS011;22580;57.670;12.006;2023-02-01T04:55:44;12.97;;;3.40;;
13012;SDS011;22580;57.670;12.006;2023-02-01T04:58:11;8.20;;;2.77;;
13012;SDS011;22580;57.670;12.006;2023-02-01T05:00:38;8.93;;;3.00;;
13012;SDS011;22580;57.670;12.006;2023-02-01T05:03:07;9.20;;;2.70;;
13012;SDS011;22580;57.670;12.006;2023-02-01T05:05:34;9.17;;;3.10;;
13012;SDS011;22580;57.670;12.006;2023-02-01T05:08:01;7.03;;;2.80;;
13012;SDS011;22580;57.670;12.006;2023-02-01T05:10:29;9.53;;;2.90;;
13012;SDS011;22580;57.670;12.006;2023-02-01T05:12:56;7.53;;;2.73;;
13012;SDS011;22580;57.670;12.006;2023-02-01T05:15:40;7.47;;;2.40;;
13012;SDS011;22580;57.670;12.006;2023-02-01T05:18:08;5.53;;;2.10;;
13012;SDS011;22580;57.670;12.006;2023-02-01T05:20:35;10.47;;;3.13;;
13012;SDS011;22580;57.670;12.006;2023-02-01T05:23:02;9.97;;;2.97;;
13012;SDS011;22580;57.670;12.006;2023-02-01T05:25:29;8.70;;;2.50;;
13012;SDS011;22580;57.670;12.006;2023-02-01T05:27:56;10.50;;;3.13;;
13012;SDS011;22580;57.670;12.006;2023-02-01T05:30:23;7.27;;;2.00;;
13012;SDS011;22580;57.670;12.006;2023-02-01T05:32:50;8.63;;;2.87;;
13012;SDS011;22580;57.670;12.006;2023-02-01T05:35:19;5.57;;;2.37;;
13012;SDS011;22580;57.670;12.006;2023-02-01T05:37:46;9.53;;;2.57;;
13012;SDS011;22580;57.670;12.006;2023-02-01T05:40:13;8.10;;;2.03;;
13012;SDS011;22580;57.670;12.006;2023-02-01T05:42:40;9.83;;;2.73;;
13012;SDS011;22580;57.670;12.006;2023-02-01T05:45:07;9.53;;;2.90;;
13012;SDS011;22580;57.670;12.006;2023-02-01T05:47:35;7.07;;;2.30;;
13012;SDS011;22580;57.670;12.006;2023-02-01T05:50:02;10.43;;;2.63;;
13012;SDS011;22580;57.670;12.006;2023-02-01T05:52:31;8.33;;;2.43;;
13012;SDS011;22580;57.670;12.006;2023-02-01T05:54:58;7.80;;;2.10;;
13012;SDS011;22580;57.670;12.006;2023-02-01T05:57:25;8.47;;;2.47;;
13012;SDS011;22580;57.670;12.006;2023-02-01T05:59:52;10.57;;;2.70;;
13012;SDS011;22580;57.670;12.006;2023-02-01T06:02:18;12.00;;;3.47;;
13012;SDS011;22580;57.670;12.006;2023-02-01T06:04:46;9.63;;;2.87;;
13012;SDS011;22580;57.670;12.006;2023-02-01T06:07:13;8.20;;;2.40;;
13012;SDS011;22580;57.670;12.006;2023-02-01T06:09:42;8.93;;;2.40;;
13012;SDS011;22580;57.670;12.006;2023-02-01T06:12:08;5.90;;;2.20;;
13012;SDS011;22580;57.670;12.006;2023-02-01T06:14:35;3.57;;;1.53;;
13012;SDS011;22580;57.670;12.006;2023-02-01T06:17:02;9.40;;;2.20;;
13012;SDS011;22580;57.670;12.006;2023-02-01T06:19:30;8.47;;;2.73;;
13012;SDS011;22580;57.670;12.006;2023-02-01T06:21:58;4.00;;;1.70;;
13012;SDS011;22580;57.670;12.006;2023-02-01T06:24:25;6.83;;;2.30;;
13012;SDS011;22580;57.670;12.006;2023-02-01T06:26:53;6.63;;;2.30;;
13012;SDS011;22580;57.670;12.006;2023-02-01T06:29:20;9.77;;;2.47;;
13012;SDS011;22580;57.670;12.006;2023-02-01T06:31:47;5.80;;;2.40;;
13012;SDS011;22580;57.670;12.006;2023-02-01T06:34:14;5.90;;;2.00;;
13012;SDS011;22580;57.670;12.006;2023-02-01T06:36:41;8.23;;;2.50;;
13012;SDS011;22580;57.670;12.006;2023-02-01T06:39:08;10.83;;;3.17;;
13012;SDS011;22580;57.670;12.006;2023-02-01T06:41:37;8.97;;;3.27;;
13012;SDS011;22580;57.670;12.006;2023-02-01T06:44:06;5.97;;;2.53;;
13012;SDS011;22580;57.670;12.006;2023-02-01T06:46:33;10.77;;;3.00;;
13012;SDS011;22580;57.670;12.006;2023-02-01T06:49:00;8.93;;;2.97;;
13012;SDS011;22580;57.670;12.006;2023-02-01T06:51:27;8.83;;;2.57;;
13012;SDS011;22580;57.670;12.006;2023-02-01T06:53:54;8.13;;;2.40;;
13012;SDS011;22580;57.670;12.006;2023-02-01T06:56:22;5.23;;;2.40;;
13012;SDS011;22580;57.670;12.006;2023-02-01T06:58:49;8.70;;;2.60;;
13012;SDS011;22580;57.670;12.006;2023-02-01T07:01:17;7.70;;;2.57;;
13012;SDS011;22580;57.670;12.006;2023-02-01T07:03:46;6.10;;;2.27;;
13012;SDS011;22580;57.670;12.006;2023-02-01T07:06:15;8.87;;;2.70;;
13012;SDS011;22580;57.670;12.006;2023-02-01T07:08:43;5.87;;;2.47;;
13012;SDS011;22580;57.670;12.006;2023-02-01T07:11:10;4.80;;;2.20;;
13012;SDS011;22580;57.670;12.006;2023-02-01T07:13:38;11.47;;;2.60;;
13012;SDS011;22580;57.670;12.006;2023-02-01T07:16:06;7.23;;;2.83;;
13012;SDS011;22580;57.670;12.006;2023-02-01T07:18:37;12.83;;;3.00;;
13012;SDS011;22580;57.670;12.006;2023-02-01T07:21:04;8.47;;;2.50;;
13012;SDS011;22580;57.670;12.006;2023-02-01T07:23:32;7.10;;;2.47;;
13012;SDS011;22580;57.670;12.006;2023-02-01T07:26:00;6.13;;;2.50;;
13012;SDS011;22580;57.670;12.006;2023-02-01T07:28:28;8.17;;;2.50;;
13012;SDS011;22580;57.670;12.006;2023-02-01T07:31:01;4.67;;;2.13;;
13012;SDS011;22580;57.670;12.006;2023-02-01T07:33:28;8.87;;;2.37;;
13012;SDS011;22580;57.670;12.006;2023-02-01T07:35:56;6.63;;;2.00;;
13012;SDS011;22580;57.670;12.006;2023-02-01T07:38:23;6.00;;;1.80;;
13012;SDS011;22580;57.670;12.006;2023-02-01T07:40:50;6.17;;;1.90;;
13012;SDS011;22580;57.670;12.006;2023-02-01T07:43:17;6.20;;;1.93;;
13012;SDS011;22580;57.670;12.006;2023-02-01T07:45:49;4.53;;;1.80;;
13012;SDS011;22580;57.670;12.006;2023-02-01T07:48:17;4.07;;;1.90;;
13012;SDS011;22580;57.670;12.006;2023-02-01T07:50:44;4.80;;;1.73;;
13012;SDS011;22580;57.670;12.006;2023-02-01T07:53:13;7.97;;;1.80;;
13012;SDS011;22580;57.670;12.006;2023-02-01T07:55:40;5.27;;;1.73;;
13012;SDS011;22580;57.670;12.006;2023-02-01T07:58:07;5.93;;;2.53;;
13012;SDS011;22580;57.670;12.006;2023-02-01T08:00:34;7.23;;;2.43;;
13012;SDS011;22580;57.670;12.006;2023-02-01T08:03:17;5.03;;;2.07;;
13012;SDS011;22580;57.670;12.006;2023-02-01T08:05:44;3.57;;;1.80;;
13012;SDS011;22580;57.670;12.006;2023-02-01T08:08:12;6.30;;;2.37;;
13012;SDS011;22580;57.670;12.006;2023-02-01T08:10:39;8.07;;;2.43;;
13012;SDS011;22580;57.670;12.006;2023-02-01T08:13:06;8.63;;;2.30;;
13012;SDS011;22580;57.670;12.006;2023-02-01T08:15:34;4.33;;;1.57;;
13012;SDS011;22580;57.670;12.006;2023-02-01T08:18:01;5.97;;;2.10;;
13012;SDS011;22580;57.670;12.006;2023-02-01T08:20:28;5.13;;;1.73;;
13012;SDS011;22580;57.670;12.006;2023-02-01T08:22:55;6.87;;;2.20;;
13012;SDS011;22580;57.670;12.006;2023-02-01T08:25:24;6.10;;;2.07;;
13012;SDS011;22580;57.670;12.006;2023-02-01T08:27:51;4.87;;;1.93;;
13012;SDS011;22580;57.670;12.006;2023-02-01T08:30:19;3.93;;;1.80;;
13012;SDS011;22580;57.670;12.006;2023-02-01T08:32:47;4.10;;;1.60;;
13012;SDS011;22580;57.670;12.006;2023-02-01T08:35:14;2.77;;;1.27;;
13012;SDS011;22580;57.670;12.006;2023-02-01T08:37:41;9.03;;;2.23;;
13012;SDS011;22580;57.670;12.006;2023-02-01T08:40:08;8.73;;;2.80;;
13012;SDS011;22580;57.670;12.006;2023-02-01T08:42:37;8.27;;;2.73;;
13012;SDS011;22580;57.670;12.006;2023-02-01T08:45:19;3.67;;;1.90;;
13012;SDS011;22580;57.670;12.006;2023-02-01T08:47:48;5.83;;;2.20;;
13012;SDS011;22580;57.670;12.006;2023-02-01T08:50:16;6.30;;;2.30;;
13012;SDS011;22580;57.670;12.006;2023-02-01T08:52:43;7.67;;;2.70;;
13012;SDS011;22580;57.670;12.006;2023-02-01T08:55:11;7.67;;;2.27;;
13012;SDS011;22580;57.670;12.006;2023-02-01T08:57:40;7.30;;;2.50;;
13012;SDS011;22580;57.670;12.006;2023-02-01T09:00:08;7.67;;;2.40;;
13012;SDS011;22580;57.670;12.006;2023-02-01T09:02:38;8.67;;;2.60;;
13012;SDS011;22580;57.670;12.006;2023-02-01T09:05:05;5.07;;;1.83;;
13012;SDS011;22580;57.670;12.006;2023-02-01T09:07:33;10.37;;;2.80;;
13012;SDS011;22580;57.670;12.006;2023-02-01T09:10:00;9.17;;;2.67;;
13012;SDS011;22580;57.670;12.006;2023-02-01T09:12:28;5.40;;;2.43;;
13012;SDS011;22580;57.670;12.006;2023-02-01T09:14:56;6.93;;;2.70;;
13012;SDS011;22580;57.670;12.006;2023-02-01T09:17:24;12.63;;;3.10;;
13012;SDS011;22580;57.670;12.006;2023-02-01T09:19:51;7.20;;;2.50;;
13012;SDS011;22580;57.670;12.006;2023-02-01T09:22:18;9.47;;;2.83;;
13012;SDS011;22580;57.670;12.006;2023-02-01T09:24:46;7.73;;;3.10;;
13012;SDS011;22580;57.670;12.006;2023-02-01T09:27:13;5.77;;;2.33;;
13012;SDS011;22580;57.670;12.006;2023-02-01T09:29:40;5.77;;;2.20;;
13012;SDS011;22580;57.670;12.006;2023-02-01T09:32:08;13.43;;;2.83;;
13012;SDS011;22580;57.670;12.006;2023-02-01T09:34:35;8.50;;;2.60;;
13012;SDS011;22580;57.670;12.006;2023-02-01T09:37:02;9.00;;;3.10;;
13012;SDS011;22580;57.670;12.006;2023-02-01T09:39:29;11.70;;;3.10;;
13012;SDS011;22580;57.670;12.006;2023-02-01T09:42:08;9.87;;;3.67;;
13012;SDS011;22580;57.670;12.006;2023-02-01T09:44:46;9.37;;;3.03;;
13012;SDS011;22580;57.670;12.006;2023-02-01T09:47:25;9.87;;;3.63;;
13012;SDS011;22580;57.670;12.006;2023-02-01T09:49:54;6.20;;;3.10;;
13012;SDS011;22580;57.670;12.006;2023-02-01T09:52:27;14.10;;;4.33;;
13012;SDS011;22580;57.670;12.006;2023-02-01T09:55:01;6.30;;;2.80;;
13012;SDS011;22580;57.670;12.006;2023-02-01T09:57:38;6.83;;;3.03;;
13012;SDS011;22580;57.670;12.006;2023-02-01T10:00:14;8.80;;;3.87;;
13012;SDS011;22580;57.670;12.006;2023-02-01T10:02:45;9.60;;;4.00;;
13012;SDS011;22580;57.670;12.006;2023-02-01T10:05:13;8.27;;;3.30;;
13012;SDS011;22580;57.670;12.006;2023-02-01T10:07:44;13.17;;;4.00;;
13012;SDS011;22580;57.670;12.006;2023-02-01T10:10:21;8.23;;;3.50;;
13012;SDS011;22580;57.670;12.006;2023-02-01T10:15:46;10.83;;;3.73;;
13012;SDS011;22580;57.670;12.006;2023-02-01T10:18:27;8.80;;;2.77;;
13012;SDS011;22580;57.670;12.006;2023-02-01T10:21:05;4.33;;;2.30;;
13012;SDS011;22580;57.670;12.006;2023-02-01T10:23:46;12.13;;;4.87;;
13012;SDS011;22580;57.670;12.006;2023-02-01T10:26:27;8.83;;;4.17;;
13012;SDS011;22580;57.670;12.006;2023-02-01T10:29:00;8.43;;;3.73;;
13012;SDS011;22580;57.670;12.006;2023-02-01T10:31:30;7.90;;;3.93;;
13012;SDS011;22580;57.670;12.006;2023-02-01T10:34:06;8.60;;;3.57;;
13012;SDS011;22580;57.670;12.006;2023-02-01T10:36:41;12.23;;;4.00;;
13012;SDS011;22580;57.670;12.006;2023-02-01T10:39:13;8.17;;;3.47;;
13012;SDS011;22580;57.670;12.006;2023-02-01T10:41:41;8.17;;;3.77;;
13012;SDS011;22580;57.670;12.006;2023-02-01T10:44:09;12.17;;;4.43;;
13012;SDS011;22580;57.670;12.006;2023-02-01T10:46:39;10.33;;;4.33;;
13012;SDS011;22580;57.670;12.006;2023-02-01T10:49:11;11.57;;;3.63;;
13012;SDS011;22580;57.670;12.006;2023-02-01T10:51:42;8.27;;;3.70;;
13012;SDS011;22580;57.670;12.006;2023-02-01T10:54:15;6.20;;;3.07;;
13012;SDS011;22580;57.670;12.006;2023-02-01T10:56:45;6.10;;;3.13;;
13012;SDS011;22580;57.670;12.006;2023-02-01T10:59:16;9.30;;;3.97;;
13012;SDS011;22580;57.670;12.006;2023-02-01T11:01:45;10.00;;;4.00;;
13012;SDS011;22580;57.670;12.006;2023-02-01T11:04:15;11.60;;;4.47;;
13012;SDS011;22580;57.670;12.006;2023-02-01T11:06:45;9.00;;;3.77;;
13012;SDS011;22580;57.670;12.006;2023-02-01T11:09:16;8.53;;;3.67;;
13012;SDS011;22580;57.670;12.006;2023-02-01T11:11:54;7.23;;;3.30;;
13012;SDS011;22580;57.670;12.006;2023-02-01T11:17:17;11.80;;;4.80;;
13012;SDS011;22580;57.670;12.006;2023-02-01T11:20:03;10.73;;;4.90;;
13012;SDS011;22580;57.670;12.006;2023-02-01T11:22:33;12.10;;;4.43;;
13012;SDS011;22580;57.670;12.006;2023-02-01T11:25:00;9.17;;;3.43;;
13012;SDS011;22580;57.670;12.006;2023-02-01T11:27:33;12.50;;;3.93;;
13012;SDS011;22580;57.670;12.006;2023-02-01T11:30:00;10.70;;;3.77;;
13012;SDS011;22580;57.670;12.006;2023-02-01T11:32:29;7.80;;;3.00;;
13012;SDS011;22580;57.670;12.006;2023-02-01T11:34:59;6.30;;;2.50;;
13012;SDS011;22580;57.670;12.006;2023-02-01T11:37:30;4.80;;;2.60;;
13012;SDS011;22580;57.670;12.006;2023-02-01T11:40:00;9.87;;;3.50;;
13012;SDS011;22580;57.670;12.006;2023-02-01T11:42:30;11.13;;;3.53;;
13012;SDS011;22580;57.670;12.006;2023-02-01T11:45:17;10.70;;;3.13;;
13012;SDS011;22580;57.670;12.006;2023-02-01T11:47:46;7.37;;;2.77;;
13012;SDS011;22580;57.670;12.006;2023-02-01T11:50:25;12.40;;;2.97;;
13012;SDS011;22580;57.670;12.006;2023-02-01T11:53:04;8.00;;;2.40;;
13012;SDS011;22580;57.670;12.006;2023-02-01T11:55:56;9.27;;;3.07;;
13012;SDS011;22580;57.670;12.006;2023-02-01T11:58:35;7.33;;;3.10;;
13012;SDS011;22580;57.670;12.006;2023-02-01T12:01:33;7.77;;;2.70;;
13012;SDS011;22580;57.670;12.006;2023-02-01T12:04:18;8.37;;;2.77;;
13012;SDS011;22580;57.670;12.006;2023-02-01T12:07:12;5.43;;;2.30;;
13012;SDS011;22580;57.670;12.006;2023-02-01T12:09:54;4.90;;;1.93;;
13012;SDS011;22580;57.670;12.006;2023-02-01T12:12:31;10.27;;;3.10;;
13012;SDS011;22580;57.670;12.006;2023-02-01T12:21:14;6.77;;;1.80;;
13012;SDS011;22580;57.670;12.006;2023-02-01T12:24:02;6.77;;;2.30;;
13012;SDS011;22580;57.670;12.006;2023-02-01T12:26:50;9.63;;;2.70;;
13012;SDS011;22580;57.670;12.006;2023-02-01T12:29:34;10.07;;;2.80;;
13012;SDS011;22580;57.670;12.006;2023-02-01T12:32:13;3.97;;;1.80;;
13012;SDS011;22580;57.670;12.006;2023-02-01T12:35:04;6.87;;;2.40;;
13012;SDS011;22580;57.670;12.006;2023-02-01T12:38:07;5.30;;;1.87;;
13012;SDS011;22580;57.670;12.006;2023-02-01T12:40:49;5.07;;;2.20;;
13012;SDS011;22580;57.670;12.006;2023-02-01T12:43:34;7.93;;;2.20;;
13012;SDS011;22580;57.670;12.006;2023-02-01T12:46:06;4.80;;;2.07;;
13012;SDS011;22580;57.670;12.006;2023-02-01T12:48:37;6.13;;;2.27;;
13012;SDS011;22580;57.670;12.006;2023-02-01T12:51:09;8.07;;;2.30;;
13012;SDS011;22580;57.670;12.006;2023-02-01T12:53:43;6.73;;;2.07;;
13012;SDS011;22580;57.670;12.006;2023-02-01T12:56:16;6.87;;;1.90;;
13012;SDS011;22580;57.670;12.006;2023-02-01T12:58:49;4.30;;;1.80;;
13012;SDS011;22580;57.670;12.006;2023-02-01T13:01:20;8.57;;;2.60;;
13012;SDS011;22580;57.670;12.006;2023-02-01T13:03:55;5.57;;;2.00;;
13012;SDS011;22580;57.670;12.006;2023-02-01T13:06:31;8.10;;;2.40;;
13012;SDS011;22580;57.670;12.006;2023-02-01T13:09:04;4.53;;;2.07;;
13012;SDS011;22580;57.670;12.006;2023-02-01T13:11:44;5.70;;;2.43;;
13012;SDS011;22580;57.670;12.006;2023-02-01T13:14:15;6.00;;;1.60;;
13012;SDS011;22580;57.670;12.006;2023-02-01T13:16:51;7.33;;;2.10;;
13012;SDS011;22580;57.670;12.006;2023-02-01T13:19:28;6.13;;;2.20;;
13012;SDS011;22580;57.670;12.006;2023-02-01T13:22:00;4.93;;;1.90;;
13012;SDS011;22580;57.670;12.006;2023-02-01T13:24:33;5.20;;;1.77;;
13012;SDS011;22580;57.670;12.006;2023-02-01T13:27:08;4.90;;;1.90;;
13012;SDS011;22580;57.670;12.006;2023-02-01T13:29:37;5.53;;;2.00;;
13012;SDS011;22580;57.670;12.006;2023-02-01T13:32:16;2.37;;;1.50;;
13012;SDS011;22580;57.670;12.006;2023-02-01T13:38:32;3.00;;;1.47;;
13012;SDS011;22580;57.670;12.006;2023-02-01T13:41:24;0.93;;;0.70;;
13012;SDS011;22580;57.670;12.006;2023-02-01T13:43:57;1.60;;;0.87;;
13012;SDS011;22580;57.670;12.006;2023-02-01T13:46:27;1.70;;;0.90;;
13012;SDS011;22580;57.670;12.006;2023-02-01T13:48:57;1.33;;;1.00;;
13012;SDS011;22580;57.670;12.006;2023-02-01T13:51:33;2.40;;;1.30;;
13012;SDS011;22580;57.670;12.006;2023-02-01T13:54:03;2.70;;;1.20;;
13012;SDS011;22580;57.670;12.006;2023-02-01T13:56:39;2.10;;;1.20;;
13012;SDS011;22580;57.670;12.006;2023-02-01T14:05:13;3.13;;;1.53;;
13012;SDS011;22580;57.670;12.006;2023-02-01T14:08:21;6.97;;;2.50;;
13012;SDS011;22580;57.670;12.006;2023-02-01T14:10:51;5.43;;;1.90;;
13012;SDS011;22580;57.670;12.006;2023-02-01T14:13:26;3.17;;;1.30;;
13012;SDS011;22580;57.670;12.006;2023-02-01T14:16:14;2.37;;;1.30;;
13012;SDS011;22580;57.670;12.006;2023-02-01T14:18:49;3.50;;;1.47;;
13012;SDS011;22580;57.670;12.006;2023-02-01T14:21:29;3.17;;;1.43;;
13012;SDS011;22580;57.670;12.006;2023-02-01T14:23:59;2.90;;;1.23;;
13012;SDS011;22580;57.670;12.006;2023-02-01T14:26:40;4.10;;;1.83;;
13012;SDS011;22580;57.670;12.006;2023-02-01T14:29:15;3.20;;;1.50;;
13012;SDS011;22580;57.670;12.006;2023-02-01T14:31:52;6.27;;;1.80;;
13012;SDS011;22580;57.670;12.006;2023-02-01T14:34:30;7.43;;;2.27;;
13012;SDS011;22580;57.670;12.006;2023-02-01T14:37:05;5.53;;;2.07;;
13012;SDS011;22580;57.670;12.006;2023-02-01T14:39:35;6.07;;;1.90;;
13012;SDS011;22580;57.670;12.006;2023-02-01T14:42:19;4.67;;;1.97;;
13012;SDS011;22580;57.670;12.006;2023-02-01T14:44:48;2.10;;;1.43;;
13012;SDS011;22580;57.670;12.006;2023-02-01T14:47:26;6.47;;;2.20;;
13012;SDS011;22580;57.670;12.006;2023-02-01T14:53:09;4.43;;;1.50;;
13012;SDS011;22580;57.670;12.006;2023-02-01T14:55:42;4.47;;;1.60;;
13012;SDS011;22580;57.670;12.006;2023-02-01T14:58:14;3.40;;;1.50;;
13012;SDS011;22580;57.670;12.006;2023-02-01T15:00:48;2.70;;;1.40;;
13012;SDS011;22580;57.670;12.006;2023-02-01T15:03:29;3.00;;;1.20;;
13012;SDS011;22580;57.670;12.006;2023-02-01T15:06:16;3.13;;;1.47;;
13012;SDS011;22580;57.670;12.006;2023-02-01T15:08:51;2.37;;;1.27;;
13012;SDS011;22580;57.670;12.006;2023-02-01T15:11:20;3.13;;;0.90;;
13012;SDS011;22580;57.670;12.006;2023-02-01T15:13:48;1.97;;;0.50;;
13012;SDS011;22580;57.670;12.006;2023-02-01T15:16:19;1.57;;;0.40;;
13012;SDS011;22580;57.670;12.006;2023-02-01T15:18:47;1.10;;;0.70;;
13012;SDS011;22580;57.670;12.006;2023-02-01T15:21:16;0.70;;;0.40;;
13012;SDS011;22580;57.670;12.006;2023-02-01T15:23:45;0.97;;;0.30;;
13012;SDS011;22580;57.670;12.006;2023-02-01T15:26:27;1.40;;;0.50;;